Aérodrome :
LOGIN :

S'inscrire | Disclaimer

   EN    FR    IT 

 










Légende :    VFR   VFR Marginal   IFR   IFR Intensif   IFR Très Intensif
Visi : 
Plafond : 
>= 8 km
>= 3000ft
5 à 8 km
1000 à 3000 ft
1500m à 5 km
500 à 1000 ft
800 à 1500m
200 à 500 ft
< 800m
< 200 ft
Symboles :   Orages  Brouillard  Fortes neiges  Fortes précipitations  Vent > 20 kt
SIGMETs :   Divers  Orages  Givrage  Turbulence  Onde Orograph.  Cendres Volcan.







- Altitude de l'aérodrome : 1585 ft
- Code IATA : SIR


LSGS - Sion

DERNIER METAR :
  • 281520Z 24009KT 200V260 9999 FEW050 SCT080TCU BKN110 21/15 Q1000

METARs EXPIRÉS :
  • 281450Z AUTO 24007KT 200V260 9999 SCT///CB 21/15 Q1000
  • 281420Z 07006KT 030V100 9999 FEW050 SCT080TCU BKN110 21/15 Q1000 RESHRA
  • 281350Z 26010KT 230V290 9999 SCT080TCU BKN110 22/14 Q1000
  • 281320Z 25011KT 9999 SCT070TCU BKN110 22/14 Q1000 RESHRA
  • 281250Z 26011KT 9999 -SHRA SCT070TCU BKN120 23/15 Q0999
  • 281220Z 25016KT 9999 SCT070TCU BKN120 23/14 Q1000

TAF TAF LSGS
Valide du 28 à 15h jusqu'au 29 à 00h UTC


281425Z 2815/2824 26012KT 9999 FEW060 BKN100
TEMPO 2815/2824 SHRA SCT080TCU
PROB30
TEMPO 2815/2818 TSRA SCT080CB
BECMG 2819/2821 VRB03KT
Pas de NOTAMs connus pour ce terrain.
1 SIGMET publié pour la FIR Switzerland (LSAS) :
 
Orages noyés dans la masse
LSAS SIGMET 4 VALID 281435/281600 LSZH
LSAS SWITZERLAND FIR/UIR EMBD TS OBS WI N4703 E00923 - N4702 E01033 - N4546 E01027 - N4540 E00611 - N4629 E00529 - N4646 E00627 - N4701 E00823 - N4703 E00923 TOP FL350 MOV NE NC=



MET'MAP, la Météo Aéronautique d'un coup d'oeil ! - Copyright ORBIFLY Décembre 2007 - Disclaimer

ORBIFLY MET'MAP TEAM :

Programmation & Développement : Alexandra Zaïnal
Conception & Développement : Baudouin d'Aumeries
Co-Programmation & Développement : Marc-Olivier Méhu
Soutien technique & logistique : Manuel Goepfert

Contact : metmap@orbifly.com




SOURCES & CREDITS :

   NOAA